sensor_id;sensor_type;location;lat;lon;timestamp;pressure;altitude;pressure_sealevel;temperature;humidity
5609;BME280;2826;51.354;9.588;2024-02-14T00:01:14;98312.25;;;7.50;72.37
5609;BME280;2826;51.354;9.588;2024-02-14T00:03:42;98303.63;;;7.51;72.28
5609;BME280;2826;51.354;9.588;2024-02-14T00:06:08;98308.72;;;7.54;72.49
5609;BME280;2826;51.354;9.588;2024-02-14T00:08:37;98306.13;;;7.54;72.65
5609;BME280;2826;51.354;9.588;2024-02-14T00:11:04;98294.84;;;7.58;72.70
5609;BME280;2826;51.354;9.588;2024-02-14T00:13:32;98293.94;;;7.61;72.34
5609;BME280;2826;51.354;9.588;2024-02-14T00:15:59;98289.59;;;7.62;72.38
5609;BME280;2826;51.354;9.588;2024-02-14T00:18:26;98288.81;;;7.60;72.63
5609;BME280;2826;51.354;9.588;2024-02-14T00:20:54;98291.38;;;7.60;72.75
5609;BME280;2826;51.354;9.588;2024-02-14T00:23:20;98284.34;;;7.65;72.53
5609;BME280;2826;51.354;9.588;2024-02-14T00:25:46;98279.84;;;7.73;72.12
5609;BME280;2826;51.354;9.588;2024-02-14T00:28:13;98279.69;;;7.79;71.72
5609;BME280;2826;51.354;9.588;2024-02-14T00:30:39;98277.91;;;7.81;71.45
5609;BME280;2826;51.354;9.588;2024-02-14T00:33:06;98283.81;;;7.87;71.18
5609;BME280;2826;51.354;9.588;2024-02-14T00:35:33;98275.97;;;7.90;71.48
5609;BME280;2826;51.354;9.588;2024-02-14T00:38:00;98267.22;;;7.94;70.88
5609;BME280;2826;51.354;9.588;2024-02-14T00:40:27;98260.34;;;7.94;71.07
5609;BME280;2826;51.354;9.588;2024-02-14T00:42:53;98267.13;;;7.98;70.63
5609;BME280;2826;51.354;9.588;2024-02-14T00:45:20;98270.47;;;8.02;70.20
5609;BME280;2826;51.354;9.588;2024-02-14T00:47:46;98276.41;;;8.06;69.98
5609;BME280;2826;51.354;9.588;2024-02-14T00:50:13;98269.44;;;8.08;69.20
5609;BME280;2826;51.354;9.588;2024-02-14T00:52:39;98270.13;;;8.15;69.08
5609;BME280;2826;51.354;9.588;2024-02-14T00:55:08;98254.97;;;8.02;68.86
5609;BME280;2826;51.354;9.588;2024-02-14T00:57:35;98259.72;;;8.18;68.09
5609;BME280;2826;51.354;9.588;2024-02-14T01:00:02;98256.13;;;8.23;67.70
5609;BME280;2826;51.354;9.588;2024-02-14T01:02:28;98256.03;;;8.25;67.64
5609;BME280;2826;51.354;9.588;2024-02-14T01:04:55;98245.63;;;8.28;67.32
5609;BME280;2826;51.354;9.588;2024-02-14T01:07:21;98244.72;;;8.29;66.89
5609;BME280;2826;51.354;9.588;2024-02-14T01:09:48;98245.53;;;8.31;67.17
5609;BME280;2826;51.354;9.588;2024-02-14T01:12:16;98242.06;;;8.32;66.81
5609;BME280;2826;51.354;9.588;2024-02-14T01:14:43;98248.88;;;8.35;66.29
5609;BME280;2826;51.354;9.588;2024-02-14T01:17:10;98239.53;;;8.31;66.40
5609;BME280;2826;51.354;9.588;2024-02-14T01:19:36;98252.09;;;8.43;65.86
5609;BME280;2826;51.354;9.588;2024-02-14T01:22:03;98239.09;;;8.46;65.72
5609;BME280;2826;51.354;9.588;2024-02-14T01:24:30;98231.41;;;8.43;65.50
5609;BME280;2826;51.354;9.588;2024-02-14T01:26:57;98229.31;;;8.56;65.18
5609;BME280;2826;51.354;9.588;2024-02-14T01:29:25;98230.22;;;8.55;65.21
5609;BME280;2826;51.354;9.588;2024-02-14T01:31:52;98230.44;;;8.47;65.18
5609;BME280;2826;51.354;9.588;2024-02-14T01:34:19;98228.59;;;8.51;64.64
5609;BME280;2826;51.354;9.588;2024-02-14T01:36:47;98222.59;;;8.50;64.81
5609;BME280;2826;51.354;9.588;2024-02-14T01:39:14;98218.25;;;8.53;64.88
5609;BME280;2826;51.354;9.588;2024-02-14T01:41:44;98219.19;;;8.48;64.75
5609;BME280;2826;51.354;9.588;2024-02-14T01:44:11;98222.63;;;8.49;64.72
5609;BME280;2826;51.354;9.588;2024-02-14T01:46:40;98219.06;;;8.55;64.26
5609;BME280;2826;51.354;9.588;2024-02-14T01:49:06;98223.00;;;8.67;64.42
5609;BME280;2826;51.354;9.588;2024-02-14T01:51:34;98215.78;;;8.48;64.81
5609;BME280;2826;51.354;9.588;2024-02-14T01:54:02;98217.13;;;8.61;64.15
5609;BME280;2826;51.354;9.588;2024-02-14T01:56:29;98211.81;;;8.66;64.06
5609;BME280;2826;51.354;9.588;2024-02-14T01:58:57;98217.06;;;8.63;64.39
5609;BME280;2826;51.354;9.588;2024-02-14T02:01:24;98216.94;;;8.68;64.33
5609;BME280;2826;51.354;9.588;2024-02-14T02:03:52;98210.38;;;8.57;64.66
5609;BME280;2826;51.354;9.588;2024-02-14T02:06:19;98211.19;;;8.58;64.38
5609;BME280;2826;51.354;9.588;2024-02-14T02:08:45;98216.53;;;8.52;64.84
5609;BME280;2826;51.354;9.588;2024-02-14T02:11:13;98225.47;;;8.70;64.27
5609;BME280;2826;51.354;9.588;2024-02-14T02:13:40;98220.94;;;8.76;63.74
5609;BME280;2826;51.354;9.588;2024-02-14T02:16:06;98227.16;;;8.72;64.03
5609;BME280;2826;51.354;9.588;2024-02-14T02:18:33;98214.22;;;8.72;63.62
5609;BME280;2826;51.354;9.588;2024-02-14T02:21:01;98207.44;;;8.68;64.13
5609;BME280;2826;51.354;9.588;2024-02-14T02:23:34;98207.38;;;8.70;64.07
5609;BME280;2826;51.354;9.588;2024-02-14T02:26:05;98208.16;;;8.73;64.45
5609;BME280;2826;51.354;9.588;2024-02-14T02:28:32;98209.13;;;8.69;64.52
5609;BME280;2826;51.354;9.588;2024-02-14T02:30:58;98207.03;;;8.81;63.90
5609;BME280;2826;51.354;9.588;2024-02-14T02:33:25;98207.00;;;8.82;64.21
5609;BME280;2826;51.354;9.588;2024-02-14T02:35:51;98206.84;;;8.87;63.91
5609;BME280;2826;51.354;9.588;2024-02-14T02:38:18;98201.69;;;8.87;63.96
5609;BME280;2826;51.354;9.588;2024-02-14T02:41:02;98194.06;;;8.82;64.14
5609;BME280;2826;51.354;9.588;2024-02-14T02:43:32;98181.19;;;8.81;64.09
5609;BME280;2826;51.354;9.588;2024-02-14T02:45:58;98157.47;;;8.68;63.85
5609;BME280;2826;51.354;9.588;2024-02-14T02:48:25;98175.81;;;8.87;64.12
5609;BME280;2826;51.354;9.588;2024-02-14T02:50:52;98174.88;;;8.89;64.31
5609;BME280;2826;51.354;9.588;2024-02-14T02:53:20;98166.25;;;8.89;63.95
5609;BME280;2826;51.354;9.588;2024-02-14T02:55:47;98171.75;;;8.80;64.24
5609;BME280;2826;51.354;9.588;2024-02-14T02:58:18;98169.66;;;8.91;63.88
5609;BME280;2826;51.354;9.588;2024-02-14T03:00:46;98167.06;;;8.91;64.29
5609;BME280;2826;51.354;9.588;2024-02-14T03:03:14;98171.38;;;8.91;63.77
5609;BME280;2826;51.354;9.588;2024-02-14T03:05:41;98174.72;;;8.94;64.43
5609;BME280;2826;51.354;9.588;2024-02-14T03:08:09;98185.34;;;8.85;65.39
5609;BME280;2826;51.354;9.588;2024-02-14T03:10:39;98165.56;;;8.84;65.61
5609;BME280;2826;51.354;9.588;2024-02-14T03:13:06;98169.19;;;8.78;65.54
5609;BME280;2826;51.354;9.588;2024-02-14T03:15:35;98156.28;;;8.78;65.41
5609;BME280;2826;51.354;9.588;2024-02-14T03:18:01;98158.84;;;8.78;65.33
5609;BME280;2826;51.354;9.588;2024-02-14T03:20:33;98160.66;;;8.76;65.72
5609;BME280;2826;51.354;9.588;2024-02-14T03:23:00;98171.78;;;8.78;65.96
5609;BME280;2826;51.354;9.588;2024-02-14T03:25:27;98166.72;;;8.75;65.48
5609;BME280;2826;51.354;9.588;2024-02-14T03:27:53;98163.94;;;8.81;65.34
5609;BME280;2826;51.354;9.588;2024-02-14T03:30:22;98160.56;;;8.79;65.32
5609;BME280;2826;51.354;9.588;2024-02-14T03:32:50;98153.47;;;8.86;65.28
5609;BME280;2826;51.354;9.588;2024-02-14T03:35:16;98167.59;;;8.74;65.34
5609;BME280;2826;51.354;9.588;2024-02-14T03:37:45;98171.91;;;8.75;65.68
5609;BME280;2826;51.354;9.588;2024-02-14T03:40:14;98177.06;;;8.75;65.53
5609;BME280;2826;51.354;9.588;2024-02-14T03:42:41;98181.94;;;8.84;65.10
5609;BME280;2826;51.354;9.588;2024-02-14T03:45:08;98166.66;;;8.76;65.48
5609;BME280;2826;51.354;9.588;2024-02-14T03:47:35;98173.06;;;8.92;65.03
5609;BME280;2826;51.354;9.588;2024-02-14T03:50:07;98157.97;;;8.79;64.84
5609;BME280;2826;51.354;9.588;2024-02-14T03:52:34;98159.38;;;8.89;64.69
5609;BME280;2826;51.354;9.588;2024-02-14T03:55:01;98154.19;;;8.89;64.69
5609;BME280;2826;51.354;9.588;2024-02-14T03:57:28;98151.09;;;8.78;64.74
5609;BME280;2826;51.354;9.588;2024-02-14T03:59:55;98158.84;;;8.78;65.02
5609;BME280;2826;51.354;9.588;2024-02-14T04:02:22;98159.66;;;8.52;65.94
5609;BME280;2826;51.354;9.588;2024-02-14T04:04:49;98149.66;;;8.69;65.78
5609;BME280;2826;51.354;9.588;2024-02-14T04:07:17;98150.50;;;8.70;65.54
5609;BME280;2826;51.354;9.588;2024-02-14T04:09:44;98145.34;;;8.70;65.68
5609;BME280;2826;51.354;9.588;2024-02-14T04:12:11;98146.13;;;8.72;65.67
5609;BME280;2826;51.354;9.588;2024-02-14T04:14:37;98140.31;;;8.65;65.86
5609;BME280;2826;51.354;9.588;2024-02-14T04:17:04;98146.91;;;8.74;65.52
5609;BME280;2826;51.354;9.588;2024-02-14T04:19:33;98156.81;;;8.61;66.42
5609;BME280;2826;51.354;9.588;2024-02-14T04:21:59;98147.91;;;8.70;66.03
5609;BME280;2826;51.354;9.588;2024-02-14T04:24:27;98150.09;;;8.82;65.34
5609;BME280;2826;51.354;9.588;2024-02-14T04:26:54;98144.84;;;8.85;65.45
5609;BME280;2826;51.354;9.588;2024-02-14T04:29:22;98150.88;;;8.86;65.95
5609;BME280;2826;51.354;9.588;2024-02-14T04:31:49;98147.44;;;8.85;65.61
5609;BME280;2826;51.354;9.588;2024-02-14T04:34:18;98148.28;;;8.86;65.86
5609;BME280;2826;51.354;9.588;2024-02-14T04:36:45;98140.41;;;8.89;65.96
5609;BME280;2826;51.354;9.588;2024-02-14T04:39:11;98143.22;;;8.83;66.04
5609;BME280;2826;51.354;9.588;2024-02-14T04:41:40;98145.78;;;8.83;66.31
5609;BME280;2826;51.354;9.588;2024-02-14T04:44:06;98133.84;;;8.79;66.71
5609;BME280;2826;51.354;9.588;2024-02-14T04:46:33;98127.44;;;8.63;66.77
5609;BME280;2826;51.354;9.588;2024-02-14T04:49:01;98154.44;;;8.82;67.14
5609;BME280;2826;51.354;9.588;2024-02-14T04:51:28;98158.72;;;8.83;67.11
5609;BME280;2826;51.354;9.588;2024-02-14T04:53:55;98154.06;;;8.66;67.55
5609;BME280;2826;51.354;9.588;2024-02-14T04:56:24;98141.31;;;8.88;67.17
5609;BME280;2826;51.354;9.588;2024-02-14T04:58:52;98140.66;;;8.81;67.14
5609;BME280;2826;51.354;9.588;2024-02-14T05:01:19;98150.78;;;8.87;67.10
5609;BME280;2826;51.354;9.588;2024-02-14T05:03:47;98156.72;;;8.91;67.20
5609;BME280;2826;51.354;9.588;2024-02-14T05:06:16;98155.09;;;8.88;67.43
5609;BME280;2826;51.354;9.588;2024-02-14T05:08:43;98154.38;;;8.83;67.67
5609;BME280;2826;51.354;9.588;2024-02-14T05:11:10;98154.75;;;8.72;67.92
5609;BME280;2826;51.354;9.588;2024-02-14T05:13:37;98156.91;;;8.85;67.83
5609;BME280;2826;51.354;9.588;2024-02-14T05:16:13;98169.03;;;8.84;67.87
5609;BME280;2826;51.354;9.588;2024-02-14T05:18:40;98155.97;;;8.87;67.94
5609;BME280;2826;51.354;9.588;2024-02-14T05:21:07;98161.34;;;8.81;67.93
5609;BME280;2826;51.354;9.588;2024-02-14T05:23:34;98156.22;;;8.80;68.06
5609;BME280;2826;51.354;9.588;2024-02-14T05:26:02;98158.25;;;8.70;68.83
5609;BME280;2826;51.354;9.588;2024-02-14T05:28:28;98144.84;;;8.58;69.26
5609;BME280;2826;51.354;9.588;2024-02-14T05:30:55;98128.47;;;8.58;69.35
5609;BME280;2826;51.354;9.588;2024-02-14T05:33:23;98159.13;;;8.70;69.24
5609;BME280;2826;51.354;9.588;2024-02-14T05:35:51;98154.69;;;8.74;69.39
5609;BME280;2826;51.354;9.588;2024-02-14T05:38:18;98152.22;;;8.71;70.12
5609;BME280;2826;51.354;9.588;2024-02-14T05:40:45;98164.28;;;8.70;69.88
5609;BME280;2826;51.354;9.588;2024-02-14T05:43:12;98157.91;;;8.81;69.31
5609;BME280;2826;51.354;9.588;2024-02-14T05:45:39;98157.03;;;8.82;69.31
5609;BME280;2826;51.354;9.588;2024-02-14T05:48:06;98147.13;;;8.68;70.22
5609;BME280;2826;51.354;9.588;2024-02-14T05:50:35;98151.50;;;8.66;69.85
5609;BME280;2826;51.354;9.588;2024-02-14T05:53:02;98161.09;;;8.62;70.58
5609;BME280;2826;51.354;9.588;2024-02-14T05:55:29;98160.91;;;8.68;70.42
5609;BME280;2826;51.354;9.588;2024-02-14T05:57:55;98137.91;;;8.59;70.23
5609;BME280;2826;51.354;9.588;2024-02-14T06:00:24;98148.25;;;8.59;70.89
5609;BME280;2826;51.354;9.588;2024-02-14T06:02:50;98158.81;;;8.53;71.26
5609;BME280;2826;51.354;9.588;2024-02-14T06:05:29;98155.84;;;8.65;71.11
5609;BME280;2826;51.354;9.588;2024-02-14T06:07:58;98164.38;;;8.67;70.80
5609;BME280;2826;51.354;9.588;2024-02-14T06:10:25;98166.91;;;8.69;71.13
5609;BME280;2826;51.354;9.588;2024-02-14T06:12:52;98162.72;;;8.65;71.19
5609;BME280;2826;51.354;9.588;2024-02-14T06:15:18;98175.66;;;8.65;71.29
5609;BME280;2826;51.354;9.588;2024-02-14T06:17:45;98177.34;;;8.66;71.42
5609;BME280;2826;51.354;9.588;2024-02-14T06:20:12;98172.94;;;8.69;71.34
5609;BME280;2826;51.354;9.588;2024-02-14T06:22:39;98149.59;;;8.44;71.75
5609;BME280;2826;51.354;9.588;2024-02-14T06:25:07;98184.22;;;8.67;71.57
5609;BME280;2826;51.354;9.588;2024-02-14T06:27:35;98179.78;;;8.70;72.03
5609;BME280;2826;51.354;9.588;2024-02-14T06:30:03;98198.69;;;8.72;71.59
5609;BME280;2826;51.354;9.588;2024-02-14T06:32:30;98191.97;;;8.67;72.05
5609;BME280;2826;51.354;9.588;2024-02-14T06:34:57;98197.25;;;8.63;72.52
5609;BME280;2826;51.354;9.588;2024-02-14T06:37:23;98196.28;;;8.66;72.65
5609;BME280;2826;51.354;9.588;2024-02-14T06:39:50;98209.50;;;8.57;72.72
5609;BME280;2826;51.354;9.588;2024-02-14T06:42:18;98205.97;;;8.59;72.84
5609;BME280;2826;51.354;9.588;2024-02-14T06:44:45;98191.00;;;8.71;72.65
5609;BME280;2826;51.354;9.588;2024-02-14T06:47:12;98202.00;;;8.47;74.12
5609;BME280;2826;51.354;9.588;2024-02-14T06:49:39;98200.28;;;8.48;74.24
5609;BME280;2826;51.354;9.588;2024-02-14T06:52:06;98209.03;;;8.72;73.24
5609;BME280;2826;51.354;9.588;2024-02-14T06:54:36;98213.94;;;8.52;74.09
5609;BME280;2826;51.354;9.588;2024-02-14T06:57:06;98219.72;;;8.61;74.10
5609;BME280;2826;51.354;9.588;2024-02-14T06:59:34;98212.78;;;8.62;74.00
5609;BME280;2826;51.354;9.588;2024-02-14T07:02:02;98220.75;;;8.56;74.47
5609;BME280;2826;51.354;9.588;2024-02-14T07:04:29;98230.19;;;8.57;74.49
5609;BME280;2826;51.354;9.588;2024-02-14T07:06:55;98228.38;;;8.59;74.61
5609;BME280;2826;51.354;9.588;2024-02-14T07:09:22;98204.88;;;8.38;74.91
5609;BME280;2826;51.354;9.588;2024-02-14T07:11:50;98233.06;;;8.46;75.53
5609;BME280;2826;51.354;9.588;2024-02-14T07:14:18;98234.44;;;8.58;75.21
5609;BME280;2826;51.354;9.588;2024-02-14T07:16:46;98235.28;;;8.60;75.33
5609;BME280;2826;51.354;9.588;2024-02-14T07:19:13;98244.03;;;8.54;75.67
5609;BME280;2826;51.354;9.588;2024-02-14T07:21:40;98244.09;;;8.53;76.16
5609;BME280;2826;51.354;9.588;2024-02-14T07:24:06;98246.25;;;8.67;75.36
5609;BME280;2826;51.354;9.588;2024-02-14T07:26:33;98241.25;;;8.60;76.04
5609;BME280;2826;51.354;9.588;2024-02-14T07:29:00;98233.34;;;8.67;75.83
5609;BME280;2826;51.354;9.588;2024-02-14T07:31:29;98235.09;;;8.65;75.79
5609;BME280;2826;51.354;9.588;2024-02-14T07:34:00;98244.50;;;8.67;76.11
5609;BME280;2826;51.354;9.588;2024-02-14T07:36:28;98244.56;;;8.66;76.06
5609;BME280;2826;51.354;9.588;2024-02-14T07:38:55;98226.41;;;8.67;76.15
5609;BME280;2826;51.354;9.588;2024-02-14T07:41:21;98243.72;;;8.65;76.72
5609;BME280;2826;51.354;9.588;2024-02-14T07:43:48;98242.50;;;8.77;76.39
5609;BME280;2826;51.354;9.588;2024-02-14T07:46:18;98242.50;;;8.77;76.24
5609;BME280;2826;51.354;9.588;2024-02-14T07:48:45;98243.56;;;8.70;77.24
5609;BME280;2826;51.354;9.588;2024-02-14T07:51:13;98257.22;;;8.75;77.18
5609;BME280;2826;51.354;9.588;2024-02-14T07:53:40;98239.16;;;8.73;77.66
5609;BME280;2826;51.354;9.588;2024-02-14T07:56:07;98231.50;;;8.70;77.95
5609;BME280;2826;51.354;9.588;2024-02-14T07:58:33;98250.63;;;8.65;78.18
5609;BME280;2826;51.354;9.588;2024-02-14T08:01:00;98242.53;;;8.75;77.99
5609;BME280;2826;51.354;9.588;2024-02-14T08:03:26;98246.91;;;8.73;78.29
5609;BME280;2826;51.354;9.588;2024-02-14T08:05:53;98250.22;;;8.79;78.07
5609;BME280;2826;51.354;9.588;2024-02-14T08:08:21;98252.72;;;8.82;77.85
5609;BME280;2826;51.354;9.588;2024-02-14T08:10:51;98247.38;;;8.86;78.24
5609;BME280;2826;51.354;9.588;2024-02-14T08:13:17;98242.50;;;8.77;78.90
5609;BME280;2826;51.354;9.588;2024-02-14T08:15:44;98249.81;;;8.91;78.54
5609;BME280;2826;51.354;9.588;2024-02-14T08:18:11;98248.84;;;8.95;78.48
5609;BME280;2826;51.354;9.588;2024-02-14T08:20:37;98253.38;;;8.88;78.61
5609;BME280;2826;51.354;9.588;2024-02-14T08:23:04;98205.69;;;8.69;78.51
5609;BME280;2826;51.354;9.588;2024-02-14T08:25:32;98209.09;;;8.71;78.44
5609;BME280;2826;51.354;9.588;2024-02-14T08:27:59;98259.84;;;9.02;78.70
5609;BME280;2826;51.354;9.588;2024-02-14T08:30:26;98253.81;;;9.01;78.58
5609;BME280;2826;51.354;9.588;2024-02-14T08:32:53;98205.78;;;8.66;78.69
5609;BME280;2826;51.354;9.588;2024-02-14T08:35:19;98257.03;;;9.08;78.59
5609;BME280;2826;51.354;9.588;2024-02-14T08:37:46;98244.38;;;9.00;79.11
5609;BME280;2826;51.354;9.588;2024-02-14T08:40:13;98251.78;;;9.11;78.60
5609;BME280;2826;51.354;9.588;2024-02-14T08:42:41;98250.22;;;9.06;78.88
5609;BME280;2826;51.354;9.588;2024-02-14T08:45:09;98255.75;;;8.95;79.61
5609;BME280;2826;51.354;9.588;2024-02-14T08:47:35;98247.72;;;9.02;79.35
5609;BME280;2826;51.354;9.588;2024-02-14T08:50:03;98253.81;;;9.01;79.47
5609;BME280;2826;51.354;9.588;2024-02-14T08:52:30;98200.53;;;8.69;79.88
5609;BME280;2826;51.354;9.588;2024-02-14T08:54:57;98254.66;;;9.02;79.80
5609;BME280;2826;51.354;9.588;2024-02-14T08:57:24;98258.69;;;9.11;79.68
5609;BME280;2826;51.354;9.588;2024-02-14T08:59:53;98260.72;;;9.01;80.39
5609;BME280;2826;51.354;9.588;2024-02-14T09:02:19;98264.66;;;9.13;80.40
5609;BME280;2826;51.354;9.588;2024-02-14T09:04:48;98259.16;;;9.24;79.66
5609;BME280;2826;51.354;9.588;2024-02-14T09:07:15;98262.56;;;9.24;80.11
5609;BME280;2826;51.354;9.588;2024-02-14T09:09:42;98271.34;;;9.19;80.20
5609;BME280;2826;51.354;9.588;2024-02-14T09:12:09;98266.00;;;9.25;80.39
5609;BME280;2826;51.354;9.588;2024-02-14T09:14:35;98264.88;;;9.32;79.93
5609;BME280;2826;51.354;9.588;2024-02-14T09:17:07;98274.50;;;9.28;80.16
5609;BME280;2826;51.354;9.588;2024-02-14T09:19:36;98262.44;;;9.29;80.43
5609;BME280;2826;51.354;9.588;2024-02-14T09:22:05;98276.84;;;9.36;80.28
5609;BME280;2826;51.354;9.588;2024-02-14T09:24:32;98277.13;;;9.27;80.78
5609;BME280;2826;51.354;9.588;2024-02-14T09:27:03;98270.31;;;9.24;81.31
5609;BME280;2826;51.354;9.588;2024-02-14T09:29:31;98267.69;;;9.26;81.32
5609;BME280;2826;51.354;9.588;2024-02-14T09:31:56;98278.69;;;9.33;81.17
5609;BME280;2826;51.354;9.588;2024-02-14T09:34:24;98272.25;;;9.45;80.94
5609;BME280;2826;51.354;9.588;2024-02-14T09:36:51;98277.16;;;9.52;80.44
5609;BME280;2826;51.354;9.588;2024-02-14T09:39:18;98273.25;;;9.40;80.97
5609;BME280;2826;51.354;9.588;2024-02-14T09:41:51;98278.28;;;9.45;81.01
5609;BME280;2826;51.354;9.588;2024-02-14T09:44:20;98278.63;;;9.61;80.74
5609;BME280;2826;51.354;9.588;2024-02-14T09:46:47;98279.56;;;9.59;80.55
5609;BME280;2826;51.354;9.588;2024-02-14T09:49:16;98276.84;;;9.62;80.01
5609;BME280;2826;51.354;9.588;2024-02-14T09:51:44;98276.97;;;9.59;80.84
5609;BME280;2826;51.354;9.588;2024-02-14T09:54:13;98283.56;;;9.67;80.66
5609;BME280;2826;51.354;9.588;2024-02-14T09:56:40;98279.19;;;9.70;80.05
5609;BME280;2826;51.354;9.588;2024-02-14T09:59:07;98277.63;;;9.65;80.57
5609;BME280;2826;51.354;9.588;2024-02-14T10:01:34;98280.97;;;9.67;80.47
5609;BME280;2826;51.354;9.588;2024-02-14T10:04:02;98273.13;;;9.71;80.22
5609;BME280;2826;51.354;9.588;2024-02-14T10:06:29;98268.78;;;9.71;80.48
5609;BME280;2826;51.354;9.588;2024-02-14T10:08:58;98275.69;;;9.71;81.04
5609;BME280;2826;51.354;9.588;2024-02-14T10:11:25;98282.19;;;9.57;81.48
5609;BME280;2826;51.354;9.588;2024-02-14T10:13:52;98279.38;;;9.63;81.58
5609;BME280;2826;51.354;9.588;2024-02-14T10:16:26;98287.88;;;9.69;82.07
5609;BME280;2826;51.354;9.588;2024-02-14T10:18:52;98283.78;;;9.61;82.18
5609;BME280;2826;51.354;9.588;2024-02-14T10:21:19;98293.34;;;9.59;82.49
5609;BME280;2826;51.354;9.588;2024-02-14T10:23:47;98296.63;;;9.64;82.13
5609;BME280;2826;51.354;9.588;2024-02-14T10:26:18;98303.81;;;9.56;82.20
5609;BME280;2826;51.354;9.588;2024-02-14T10:28:45;98307.00;;;9.64;82.13
5609;BME280;2826;51.354;9.588;2024-02-14T10:31:12;98307.56;;;9.73;81.88
5609;BME280;2826;51.354;9.588;2024-02-14T10:33:39;98310.06;;;9.76;81.71
5609;BME280;2826;51.354;9.588;2024-02-14T10:36:08;98311.19;;;9.69;82.46
5609;BME280;2826;51.354;9.588;2024-02-14T10:38:34;98311.53;;;9.83;81.82
5609;BME280;2826;51.354;9.588;2024-02-14T10:41:05;98329.84;;;9.77;82.06
5609;BME280;2826;51.354;9.588;2024-02-14T10:43:34;98321.09;;;9.81;81.98
5609;BME280;2826;51.354;9.588;2024-02-14T10:46:07;98324.22;;;9.65;82.46
5609;BME280;2826;51.354;9.588;2024-02-14T10:48:35;98318.78;;;9.73;82.20
5609;BME280;2826;51.354;9.588;2024-02-14T10:51:05;98302.81;;;9.60;82.61
5609;BME280;2826;51.354;9.588;2024-02-14T10:53:38;98327.88;;;9.85;82.19
5609;BME280;2826;51.354;9.588;2024-02-14T10:56:08;98330.50;;;9.84;81.74
5609;BME280;2826;51.354;9.588;2024-02-14T10:58:36;98337.13;;;9.92;81.87
5609;BME280;2826;51.354;9.588;2024-02-14T11:01:04;98335.31;;;9.94;81.82
5609;BME280;2826;51.354;9.588;2024-02-14T11:03:33;98324.38;;;9.86;81.68
5609;BME280;2826;51.354;9.588;2024-02-14T11:06:01;98327.59;;;9.93;81.44
5609;BME280;2826;51.354;9.588;2024-02-14T11:08:29;98332.69;;;9.96;81.52
5609;BME280;2826;51.354;9.588;2024-02-14T11:10:59;98333.22;;;10.06;81.00
5609;BME280;2826;51.354;9.588;2024-02-14T11:13:26;98337.75;;;9.99;81.58
5609;BME280;2826;51.354;9.588;2024-02-14T11:15:56;98336.91;;;9.99;81.35
5609;BME280;2826;51.354;9.588;2024-02-14T11:18:27;98338.34;;;10.07;80.89
5609;BME280;2826;51.354;9.588;2024-02-14T11:20:58;98312.06;;;9.93;81.13
5609;BME280;2826;51.354;9.588;2024-02-14T11:23:30;98339.13;;;10.10;80.98
5609;BME280;2826;51.354;9.588;2024-02-14T11:26:00;98348.44;;;10.15;80.81
5609;BME280;2826;51.354;9.588;2024-02-14T11:28:28;98345.16;;;10.10;81.12
5609;BME280;2826;51.354;9.588;2024-02-14T11:31:00;98333.50;;;10.22;80.46
5609;BME280;2826;51.354;9.588;2024-02-14T11:33:29;98327.75;;;10.38;79.78
5609;BME280;2826;51.354;9.588;2024-02-14T11:35:56;98331.00;;;10.44;79.87
5609;BME280;2826;51.354;9.588;2024-02-14T11:38:24;98317.88;;;10.49;79.83
5609;BME280;2826;51.354;9.588;2024-02-14T11:40:53;98292.38;;;10.37;79.14
5609;BME280;2826;51.354;9.588;2024-02-14T11:43:22;98326.38;;;10.53;79.22
5609;BME280;2826;51.354;9.588;2024-02-14T11:45:50;98318.25;;;10.62;78.75
5609;BME280;2826;51.354;9.588;2024-02-14T11:48:19;98321.56;;;10.67;78.55
5609;BME280;2826;51.354;9.588;2024-02-14T11:50:47;98323.34;;;10.65;78.06
5609;BME280;2826;51.354;9.588;2024-02-14T11:53:15;98305.03;;;10.46;78.64
5609;BME280;2826;51.354;9.588;2024-02-14T11:55:44;98318.41;;;10.59;79.03
5609;BME280;2826;51.354;9.588;2024-02-14T11:58:13;98314.84;;;10.62;78.90
5609;BME280;2826;51.354;9.588;2024-02-14T12:00:42;98319.38;;;10.56;78.93
5609;BME280;2826;51.354;9.588;2024-02-14T12:03:11;98319.06;;;10.64;78.73
5609;BME280;2826;51.354;9.588;2024-02-14T12:05:40;98316.63;;;10.59;79.32
5609;BME280;2826;51.354;9.588;2024-02-14T12:08:09;98319.78;;;10.68;79.09
5609;BME280;2826;51.354;9.588;2024-02-14T12:10:36;98316.59;;;10.61;78.89
5609;BME280;2826;51.354;9.588;2024-02-14T12:13:07;98326.13;;;10.61;79.64
5609;BME280;2826;51.354;9.588;2024-02-14T12:15:38;98331.06;;;10.67;79.27
5609;BME280;2826;51.354;9.588;2024-02-14T12:18:05;98321.31;;;10.74;79.05
5609;BME280;2826;51.354;9.588;2024-02-14T12:20:32;98327.13;;;10.80;78.58
5609;BME280;2826;51.354;9.588;2024-02-14T12:23:01;98334.19;;;10.77;78.92
5609;BME280;2826;51.354;9.588;2024-02-14T12:25:29;98330.09;;;10.69;79.18
5609;BME280;2826;51.354;9.588;2024-02-14T12:27:56;98311.97;;;10.69;79.11
5609;BME280;2826;51.354;9.588;2024-02-14T12:30:33;98323.56;;;10.83;79.00
5609;BME280;2826;51.354;9.588;2024-02-14T12:33:10;98330.31;;;10.87;79.08
5609;BME280;2826;51.354;9.588;2024-02-14T12:35:36;98318.56;;;10.78;79.02
5609;BME280;2826;51.354;9.588;2024-02-14T12:38:08;98324.41;;;10.83;79.14
5609;BME280;2826;51.354;9.588;2024-02-14T12:40:35;98326.00;;;10.88;78.96
5609;BME280;2826;51.354;9.588;2024-02-14T12:43:02;98338.88;;;10.89;79.23
5609;BME280;2826;51.354;9.588;2024-02-14T12:45:31;98330.94;;;10.94;79.31
5609;BME280;2826;51.354;9.588;2024-02-14T12:47:58;98328.44;;;10.91;79.50
5609;BME280;2826;51.354;9.588;2024-02-14T12:50:25;98318.22;;;10.64;80.30
5609;BME280;2826;51.354;9.588;2024-02-14T12:52:52;98325.63;;;10.97;79.28
5609;BME280;2826;51.354;9.588;2024-02-14T12:55:20;98328.47;;;11.13;78.91
5609;BME280;2826;51.354;9.588;2024-02-14T12:57:49;98334.63;;;11.10;78.92
5609;BME280;2826;51.354;9.588;2024-02-14T13:00:16;98323.69;;;11.24;77.98
5609;BME280;2826;51.354;9.588;2024-02-14T13:02:43;98336.38;;;11.32;77.73
5609;BME280;2826;51.354;9.588;2024-02-14T13:05:09;98337.19;;;11.33;78.11
5609;BME280;2826;51.354;9.588;2024-02-14T13:07:36;98331.78;;;11.39;77.57
5609;BME280;2826;51.354;9.588;2024-02-14T13:10:04;98339.78;;;11.33;78.03
5609;BME280;2826;51.354;9.588;2024-02-14T13:12:33;98308.31;;;11.20;78.21
5609;BME280;2826;51.354;9.588;2024-02-14T13:14:59;98322.09;;;11.43;77.43
5609;BME280;2826;51.354;9.588;2024-02-14T13:17:26;98331.19;;;11.32;78.40
5609;BME280;2826;51.354;9.588;2024-02-14T13:19:53;98328.97;;;11.44;78.01
5609;BME280;2826;51.354;9.588;2024-02-14T13:22:19;98325.34;;;11.48;77.56
5609;BME280;2826;51.354;9.588;2024-02-14T13:24:46;98319.56;;;11.41;78.07
5609;BME280;2826;51.354;9.588;2024-02-14T13:27:12;98310.03;;;11.42;77.74
5609;BME280;2826;51.354;9.588;2024-02-14T13:29:40;98319.38;;;11.46;78.13
5609;BME280;2826;51.354;9.588;2024-02-14T13:32:07;98314.78;;;11.53;77.98
5609;BME280;2826;51.354;9.588;2024-02-14T13:34:34;98319.88;;;11.54;77.65